Terminal Aerodrome Forecast
Issued by NWS

Home | Current Version | Previous Version | Text Only | Print | Product List | Glossary On
Versions: 1 2 3 4 5 6 7 8 9 10 11
184
FTUS45 KVEF 281123
TAFHND
TAF
KHND 281123Z 2812/2912 03012G18KT P6SM FEW250
     FM281400 01014G22KT P6SM FEW250
     FM282200 35017G26KT P6SM FEW250
     FM290200 01012KT P6SM SKC=

USA.gov is the U.S. government's official web portal to all federal, state and local government web resources and services.